Terminal Aerodrome Forecast
Issued by NWS

Home | Current Version | Previous Version | Text Only | Print | Product List | Glossary On
Versions: 1 2 3 4 5 6 7 8 9 10 11 12 13 14 15 16 17 18 19 20 21 22
000
FTUS46 KPDT 241700
TAFYKM
TAF
KYKM 241736Z 2418/2518 VRB03KT P6SM SCT150 BKN200
     FM250000 27005KT P6SM VCSH SCT050 BKN090
     FM250300 30003KT 6SM -RA BKN030 OVC050 PROB30 2506/2512 4SM -RA
      BR BKN020 OVC030
     FM251200 VRB03KT 6SM -RA BR BKN030 OVC050=

USA.gov is the U.S. government's official web portal to all federal, state and local government web resources and services.